createdAt,value
2018-06-22T03:37:39.316Z,25.1
2018-06-22T03:38:29.147Z,25.2
2018-06-22T03:39:19.442Z,25.1
2018-06-22T03:40:08.688Z,25.1
2018-06-22T03:40:59.040Z,25.1
2018-06-22T03:41:49.655Z,25.1
2018-06-22T03:42:39.150Z,25.2
2018-06-22T03:43:29.193Z,25.1
2018-06-22T03:44:19.535Z,25.1
2018-06-22T03:45:09.868Z,25.1
2018-06-22T03:45:59.690Z,25.1
2018-06-22T03:46:50.056Z,25.1
2018-06-22T03:47:39.802Z,25.1
2018-06-22T03:48:29.875Z,25.1
2018-06-22T03:49:19.929Z,25.1
2018-06-22T03:50:09.723Z,25.2
2018-06-22T03:50:59.765Z,25.1
2018-06-22T03:51:49.850Z,25.1
2018-06-22T03:52:40.459Z,25.1
2018-06-22T03:53:30.258Z,25.1
2018-06-22T03:54:20.588Z,25.2
2018-06-22T03:55:10.643Z,25.2
2018-06-22T03:55:59.865Z,25.1
2018-06-22T03:56:50.968Z,25.1
2018-06-22T03:57:40.000Z,25.1
2018-06-22T03:58:30.669Z,25.1
2018-06-22T03:59:20.935Z,25.1
2018-06-22T04:00:10.774Z,25.1
2018-06-22T04:01:00.801Z,25.1
2018-06-22T04:01:50.642Z,25.1
2018-06-22T04:02:41.231Z,25.1
2018-06-22T04:03:30.229Z,25.1
2018-06-22T04:04:21.073Z,25.1
2018-06-22T04:05:10.571Z,25.1
2018-06-22T04:06:01.214Z,25.1
2018-06-22T04:06:51.266Z,25.1
2018-06-22T04:07:41.639Z,25.1
2018-06-22T04:08:31.687Z,25.1
2018-06-22T04:09:21.231Z,25.1
2018-06-22T04:10:11.224Z,25.1
2018-06-22T04:11:01.889Z,25.1
2018-06-22T04:11:51.649Z,25.1
2018-06-22T04:12:41.749Z,25.1
2018-06-22T04:13:32.068Z,25.1
2018-06-22T04:14:21.635Z,25.1
2018-06-22T04:15:12.188Z,25.1
2018-06-22T04:16:02.256Z,25.1
2018-06-22T04:16:51.546Z,25.1
2018-06-22T04:17:41.623Z,25.1
2018-06-22T04:18:31.390Z,25.1
2018-06-22T04:19:22.227Z,25.1
2018-06-22T04:20:11.318Z,25.1
2018-06-22T04:21:02.081Z,25.1
2018-06-22T04:21:52.404Z,25.1
2018-06-22T04:22:42.233Z,25.1
2018-06-22T04:23:32.269Z,25.1
2018-06-22T04:24:22.212Z,25.1
2018-06-22T04:25:12.988Z,25.1
2018-06-22T04:26:02.752Z,25.1
2018-06-22T04:26:52.778Z,25.1
2018-06-22T04:27:43.115Z,25.1
2018-06-22T04:28:33.198Z,25.1
2018-06-22T04:29:23.251Z,25.1
2018-06-22T04:30:12.794Z,25.1
2018-06-22T04:31:03.159Z,25.1
2018-06-22T04:31:53.464Z,25.1
2018-06-22T04:32:43.246Z,25.1
2018-06-22T04:33:33.594Z,25.1
2018-06-22T04:34:23.410Z,25.1
2018-06-22T04:35:12.394Z,25.1
2018-06-22T04:36:03.814Z,25.1
2018-06-22T04:36:53.879Z,25.1
2018-06-22T04:37:43.917Z,25.1
2018-06-22T04:38:33.857Z,25.1
2018-06-22T04:39:23.757Z,25.1
2018-06-22T04:40:13.801Z,25.1
2018-06-22T04:41:03.344Z,25.1
2018-06-22T04:41:53.957Z,25.1
2018-06-22T04:42:43.440Z,25.1
2018-06-22T04:43:34.075Z,25.1
2018-06-22T04:44:24.434Z,25.1
2018-06-22T04:45:14.223Z,25.1
2018-06-22T04:46:04.591Z,25.1
2018-06-22T04:46:54.327Z,25.1
2018-06-22T04:47:45.147Z,25.1
2018-06-22T04:48:33.911Z,25.1
2018-06-22T04:49:24.787Z,25.1
2018-06-22T04:50:14.915Z,25.1
2018-06-22T04:51:04.675Z,25.1
2018-06-22T04:51:54.742Z,25.1
2018-06-22T04:52:44.110Z,25.1
2018-06-22T04:53:34.905Z,25.1
2018-06-22T04:54:25.241Z,25.1
2018-06-22T04:55:15.255Z,25.1
2018-06-22T04:56:05.060Z,25.1
2018-06-22T04:56:55.085Z,25.1
2018-06-22T04:57:45.168Z,25.1
2018-06-22T04:58:35.486Z,25.1
2018-06-22T04:59:25.559Z,25.1
2018-06-22T05:00:15.373Z,25.1
2018-06-22T05:01:05.703Z,25.1
2018-06-22T05:01:55.764Z,25.1
2018-06-22T05:02:45.324Z,25.1
2018-06-22T05:03:36.218Z,25.1
2018-06-22T05:04:25.680Z,25.1
2018-06-22T05:05:16.072Z,25.1
2018-06-22T05:06:06.131Z,25.1
2018-06-22T05:06:55.626Z,25.1
2018-06-22T05:07:45.947Z,25.1
2018-06-22T05:08:36.305Z,25.1
2018-06-22T05:09:26.881Z,25.1
2018-06-22T05:10:15.905Z,25.1
2018-06-22T05:11:05.922Z,25.1
2018-06-22T05:11:56.543Z,25.1
2018-06-22T05:12:46.355Z,25.1
2018-06-22T05:13:36.672Z,25.1
2018-06-22T05:14:26.744Z,25.1
2018-06-22T05:15:16.527Z,25.1
2018-06-22T05:16:06.606Z,25.1
2018-06-22T05:16:56.686Z,25.1
2018-06-22T05:17:46.739Z,25.1
2018-06-22T05:18:36.787Z,25.1
2018-06-22T05:19:27.135Z,25.1
2018-06-22T05:20:17.202Z,25.1
2018-06-22T05:21:06.985Z,25.1
2018-06-22T05:21:57.344Z,25.1
2018-06-22T05:22:48.041Z,25.1
2018-06-22T05:23:37.168Z,25.1
2018-06-22T05:24:27.531Z,25.1
2018-06-22T05:25:17.660Z,25.1
2018-06-22T05:26:07.647Z,25.1
2018-06-22T05:26:56.846Z,25.1
2018-06-22T05:27:47.540Z,25.1
2018-06-22T05:28:37.286Z,25.1
2018-06-22T05:29:27.598Z,25.1
2018-06-22T05:30:17.946Z,25.1
2018-06-22T05:31:07.750Z,25.1
2018-06-22T05:31:57.837Z,25.1
2018-06-22T05:32:48.151Z,25.1
2018-06-22T05:33:37.987Z,25.1
2018-06-22T05:34:27.972Z,25.1
2018-06-22T05:35:18.073Z,25.1
2018-06-22T05:36:07.964Z,25.1
2018-06-22T05:36:58.549Z,25.1
2018-06-22T05:37:47.977Z,25.1
2018-06-22T05:38:38.327Z,25.1
2018-06-22T05:39:28.170Z,25.1
2018-06-22T05:40:18.732Z,25.1
2018-06-22T05:41:08.811Z,25.1
2018-06-22T05:41:58.572Z,25.1
2018-06-22T05:42:48.915Z,25.1
2018-06-22T05:43:38.408Z,25.1
2018-06-22T05:44:28.801Z,25.1
2018-06-22T05:45:18.807Z,25.1
2018-06-22T05:46:08.325Z,25.1
2018-06-22T05:46:59.224Z,25.1
2018-06-22T05:47:49.035Z,25.1
2018-06-22T05:48:38.818Z,25.1
2018-06-22T05:49:28.706Z,25.1
2018-06-22T05:50:19.510Z,25.1
2018-06-22T05:51:09.028Z,25.1
2018-06-22T05:51:59.674Z,25.1
2018-06-22T05:52:49.146Z,25.1
2018-06-22T05:53:39.508Z,25.1
2018-06-22T05:54:29.077Z,25.1
2018-06-22T05:55:19.111Z,25.1
2018-06-22T05:56:09.982Z,25.1
2018-06-22T05:57:00.015Z,25.1
2018-06-22T05:57:49.794Z,25.1
2018-06-22T05:58:40.156Z,25.1
2018-06-22T05:59:29.360Z,25.1
2018-06-22T06:00:19.982Z,25.1
2018-06-22T06:01:10.334Z,25.1
2018-06-22T06:02:00.172Z,25.1
2018-06-22T06:02:50.471Z,25.1
2018-06-22T06:03:41.122Z,25.1
2018-06-22T06:04:29.809Z,25.1
2018-06-22T06:05:20.666Z,25.1
2018-06-22T06:06:10.438Z,25.1
2018-06-22T06:07:00.804Z,25.1
2018-06-22T06:07:50.854Z,25.1
2018-06-22T06:08:40.655Z,25.1
2018-06-22T06:09:30.970Z,25.1
2018-06-22T06:10:20.778Z,25.1
2018-06-22T06:11:11.396Z,25.1
2018-06-22T06:12:01.160Z,25.1
2018-06-22T06:12:51.225Z,25.1
2018-06-22T06:13:41.025Z,25.1
2018-06-22T06:14:30.592Z,25.1
2018-06-22T06:15:21.418Z,25.1
2018-06-22T06:16:11.477Z,25.1
2018-06-22T06:17:01.638Z,25.1
2018-06-22T06:17:51.602Z,25.3
2018-06-22T06:18:41.890Z,25.8
2018-06-22T06:19:31.496Z,39.4
2018-06-22T06:20:21.057Z,47.1
2018-06-22T06:21:11.595Z,48
2018-06-22T06:22:01.365Z,46.8
2018-06-22T06:22:52.032Z,46.3
2018-06-22T06:23:42.081Z,46
2018-06-22T06:24:31.872Z,45.7
2018-06-22T06:25:21.918Z,45.3
2018-06-22T06:26:11.967Z,44.9
2018-06-22T06:27:02.060Z,44.5
2018-06-22T06:27:52.422Z,44.2
2018-06-22T06:28:41.917Z,43.8
2018-06-22T06:29:32.498Z,43.5
2018-06-22T06:30:22.602Z,43.1
2018-06-22T06:31:12.400Z,42.8
2018-06-22T06:32:02.484Z,42.5
2018-06-22T06:32:52.802Z,42.2
2018-06-22T06:33:42.564Z,41.8
2018-06-22T06:34:32.958Z,41.6
2018-06-22T06:35:22.712Z,41.2
2018-06-22T06:36:13.029Z,40.9
2018-06-22T06:37:02.807Z,40.6
2018-06-22T06:37:52.901Z,40.3
2018-06-22T06:38:43.203Z,40
2018-06-22T06:39:33.344Z,40.1
2018-06-22T06:40:23.420Z,41.3
2018-06-22T06:41:13.415Z,48.9
2018-06-22T06:42:02.469Z,50.6
2018-06-22T06:42:53.262Z,49.8
2018-06-22T06:43:42.762Z,48.1
2018-06-22T06:44:33.692Z,45.9
2018-06-22T06:45:23.456Z,44.8
2018-06-22T06:46:13.826Z,44.3
2018-06-22T06:47:03.608Z,44.1
2018-06-22T06:47:53.931Z,44
2018-06-22T06:48:43.428Z,43.8
2018-06-22T06:49:34.144Z,43.5
2018-06-22T06:50:23.862Z,43.3
2018-06-22T06:51:14.205Z,43.1
2018-06-22T06:52:04.255Z,42.8
2018-06-22T06:52:54.022Z,44.2
2018-06-22T06:53:43.835Z,50.4
2018-06-22T06:54:34.188Z,52.3
2018-06-22T06:56:14.610Z,51.2
2018-06-22T06:57:04.118Z,49.2
2018-06-22T06:57:54.186Z,47.6
2018-06-22T06:58:44.790Z,47.4
2018-06-22T06:59:34.893Z,48.4
2018-06-22T07:00:24.908Z,49.6
2018-06-22T07:01:14.673Z,50.4
2018-06-22T07:02:05.075Z,50.6
2018-06-22T07:02:54.236Z,50.3
2018-06-22T07:03:44.319Z,49.8
2018-06-22T07:04:34.946Z,49.6
2018-06-22T07:05:25.034Z,49.6
2018-06-22T07:06:14.891Z,50
2018-06-22T07:07:05.462Z,50.4
2018-06-22T07:07:55.564Z,50.7
2018-06-22T07:08:45.265Z,50.9
2018-06-22T07:09:35.623Z,50.9
2018-06-22T07:10:25.700Z,50.9
2018-06-22T07:11:15.785Z,50.9
2018-06-22T07:12:05.831Z,51
2018-06-22T07:12:55.880Z,51.2
2018-06-22T07:13:45.649Z,51.4
2018-06-22T07:14:36.012Z,51.6
2018-06-22T07:15:26.079Z,51.8
2018-06-22T07:16:15.844Z,51.9
2018-06-22T07:17:06.069Z,52
2018-06-22T07:17:56.282Z,52.1
2018-06-22T07:18:46.360Z,52.3
2018-06-22T07:20:26.457Z,52.6
2018-06-22T07:21:16.525Z,52.7
2018-06-22T07:22:06.600Z,52.9
2018-06-22T07:22:56.074Z,53
2018-06-22T07:23:46.760Z,53.1
2018-06-22T07:24:36.531Z,53.3
2018-06-22T07:25:26.292Z,53.4
2018-06-22T07:26:16.043Z,53.4
2018-06-22T07:27:06.220Z,53.6
2018-06-22T07:27:56.766Z,53.8
2018-06-22T07:28:47.109Z,53.9
2018-06-22T07:29:36.904Z,54.1
2018-06-22T07:30:26.971Z,54.1
2018-06-22T07:31:17.321Z,54.3
2018-06-22T07:32:07.407Z,54.3
2018-06-22T07:32:56.871Z,54.5
2018-06-22T07:33:47.488Z,54.6
2018-06-22T07:34:37.024Z,54.8
2018-06-22T07:35:27.418Z,54.9
2018-06-22T07:36:17.484Z,55.1
2018-06-22T07:37:07.779Z,55.2
2018-06-22T07:37:57.248Z,55.3
2018-06-22T07:38:47.921Z,55.4
2018-06-22T07:39:37.105Z,55.5
2018-06-22T07:40:28.019Z,55.6
2018-06-22T07:41:17.336Z,55.7
2018-06-22T07:42:08.148Z,55.8
2018-06-22T07:42:58.269Z,55.9
2018-06-22T07:43:48.058Z,56
2018-06-22T07:44:38.032Z,56.2
2018-06-22T07:45:27.357Z,56.3
2018-06-22T07:46:18.464Z,56.4
2018-06-22T07:47:08.553Z,56.4
2018-06-22T07:47:58.588Z,56.6
2018-06-22T07:48:48.638Z,56.8
2018-06-22T07:49:38.175Z,56.8
2018-06-22T07:50:28.501Z,56.9
2018-06-22T07:51:18.301Z,57.1
2018-06-22T07:52:08.915Z,57.2
2018-06-22T07:52:58.715Z,57.3
2018-06-22T07:53:48.802Z,57.4
2018-06-22T07:54:38.557Z,57.6
2018-06-22T07:55:28.618Z,57.7
2018-06-22T07:56:19.241Z,57.8
2018-06-22T07:57:09.418Z,57.9
2018-06-22T07:57:59.498Z,58
2018-06-22T07:58:49.481Z,58.1
2018-06-22T07:59:39.521Z,58.2
2018-06-22T08:00:29.620Z,58.3
2018-06-22T08:01:19.647Z,58.4
2018-06-22T08:02:09.679Z,58.4
2018-06-22T08:03:49.529Z,58.7
2018-06-22T08:04:39.884Z,58.8
2018-06-22T08:05:29.941Z,58.9
2018-06-22T08:06:20.279Z,59
2018-06-22T08:07:10.079Z,59.1
2018-06-22T08:08:00.134Z,59.2
2018-06-22T08:08:50.213Z,59.3
2018-06-22T08:09:40.086Z,59.4
2018-06-22T08:10:30.337Z,59.4
2018-06-22T08:11:20.114Z,59.6
2018-06-22T08:12:09.950Z,59.6
2018-06-22T08:13:00.553Z,59.7
2018-06-22T08:13:50.331Z,59.8
2018-06-22T08:14:40.656Z,59.9
2018-06-22T08:15:30.182Z,59.9
2018-06-22T08:16:20.796Z,59.9
2018-06-22T08:17:10.845Z,60.1
2018-06-22T08:18:00.903Z,60.2
2018-06-22T08:18:51.056Z,60.3
2018-06-22T08:19:41.032Z,60.4
2018-06-22T08:20:30.834Z,60.4
2018-06-22T08:21:21.228Z,60.5
2018-06-22T08:22:11.248Z,60.6
2018-06-22T08:23:01.055Z,60.7
2018-06-22T08:23:51.382Z,60.8
2018-06-22T08:24:40.953Z,60.9
2018-06-22T08:25:31.509Z,61.1
2018-06-22T08:26:20.871Z,61.2
2018-06-22T08:27:11.633Z,61.3
2018-06-22T08:28:01.741Z,61.4
2018-06-22T08:28:51.492Z,61.5
2018-06-22T08:29:41.264Z,61.6
2018-06-22T08:30:31.875Z,61.7
2018-06-22T08:31:21.960Z,61.8
2018-06-22T08:32:11.761Z,61.9
2018-06-22T08:33:01.826Z,62
2018-06-22T08:33:51.702Z,62.1
2018-06-22T08:34:41.953Z,62.2
2018-06-22T08:35:32.005Z,62.3
2018-06-22T08:36:22.350Z,62.4
2018-06-22T08:37:12.148Z,62.4
2018-06-22T08:38:01.719Z,62.5
2018-06-22T08:38:52.282Z,62.6
2018-06-22T08:39:42.352Z,62.7
2018-06-22T08:40:32.684Z,62.8
2018-06-22T08:41:22.455Z,62.9
2018-06-22T08:42:12.842Z,63
2018-06-22T08:43:02.600Z,63.1
2018-06-22T08:43:52.952Z,63.2
2018-06-22T08:44:42.979Z,63.3
2018-06-22T08:45:33.066Z,63.4
2018-06-22T08:46:22.576Z,63.4
2018-06-22T08:47:13.221Z,63.6
2018-06-22T08:48:03.275Z,63.6
2018-06-22T08:48:53.413Z,63.7
2018-06-22T08:49:43.177Z,63.8
2018-06-22T08:50:33.158Z,63.9
2018-06-22T08:51:22.983Z,63.9
2018-06-22T08:52:13.313Z,64
2018-06-22T08:53:03.381Z,64
2018-06-22T08:53:53.725Z,64.1
2018-06-22T08:54:43.487Z,64.1
2018-06-22T08:55:33.595Z,64.3
2018-06-22T08:56:23.937Z,64.3
2018-06-22T08:57:13.701Z,64.3
2018-06-22T08:58:03.836Z,64.4
2018-06-22T08:58:54.092Z,64.4
2018-06-22T08:59:44.190Z,64.6
2018-06-22T09:00:33.967Z,64.6
2018-06-22T09:01:25.405Z,64.7
2018-06-22T09:02:14.104Z,64.8
2018-06-22T09:03:04.252Z,64.9
2018-06-22T09:03:54.491Z,64.9
2018-06-22T09:04:44.309Z,65
2018-06-22T09:05:34.641Z,65.1
2018-06-22T09:06:24.122Z,65.1
2018-06-22T09:07:14.199Z,65.2
2018-06-22T09:08:04.814Z,65.3
2018-06-22T09:08:54.876Z,65.3
2018-06-22T09:09:44.116Z,65.4
2018-06-22T09:10:34.719Z,65.4
2018-06-22T09:11:24.516Z,65.4
2018-06-22T09:12:15.141Z,65.4
2018-06-22T09:13:05.198Z,65.6
2018-06-22T09:13:55.281Z,65.7
2018-06-22T09:14:45.066Z,65.8
2018-06-22T09:15:35.407Z,65.8
2018-06-22T09:16:24.922Z,65.9
2018-06-22T09:17:15.264Z,65.9
2018-06-22T09:18:05.070Z,65.9
2018-06-22T09:18:55.108Z,66
2018-06-22T09:19:45.596Z,66.1
2018-06-22T09:20:35.818Z,66.1
2018-06-22T09:21:25.312Z,66.2
2018-06-22T09:22:15.654Z,66.2
2018-06-22T09:23:05.471Z,66.2
2018-06-22T09:23:56.037Z,66.2
2018-06-22T09:24:45.842Z,66.2
2018-06-22T09:25:36.181Z,66.3
2018-06-22T09:26:25.960Z,66.4
2018-06-22T09:27:16.043Z,66.6
2018-06-22T09:28:05.808Z,66.6
2018-06-22T09:28:56.207Z,66.7
2018-06-22T09:29:46.555Z,66.8
2018-06-22T09:30:36.059Z,66.8
2018-06-22T09:31:26.893Z,66.9
2018-06-22T09:32:16.176Z,67
2018-06-22T09:33:06.830Z,67.1
2018-06-22T09:33:56.909Z,67.1
2018-06-22T09:34:46.634Z,67.3
2018-06-22T09:35:37.009Z,67.3
2018-06-22T09:36:27.087Z,67.4
2018-06-22T09:37:17.128Z,67.6
2018-06-22T09:38:06.439Z,67.6
2018-06-22T09:38:57.264Z,67.6
2018-06-22T09:39:47.308Z,67.8
2018-06-22T09:40:37.389Z,67.8
2018-06-22T09:41:27.465Z,67.8
2018-06-22T09:42:17.505Z,67.8
2018-06-22T09:43:07.577Z,67.9
2018-06-22T09:43:57.083Z,67.9
2018-06-22T09:44:47.405Z,67.9
2018-06-22T09:45:37.515Z,68
2018-06-22T09:46:26.493Z,68.1
2018-06-22T09:47:17.617Z,68.3
2018-06-22T09:48:07.114Z,68.3
2018-06-22T09:48:57.477Z,68.3
2018-06-22T09:49:47.537Z,68.4
2018-06-22T09:50:37.604Z,68.4
2018-06-22T09:51:27.953Z,68.5
2018-06-22T09:52:18.293Z,68.6
2018-06-22T09:53:08.449Z,68.6
2018-06-22T09:53:58.138Z,68.7
2018-06-22T09:54:48.468Z,68.8
2018-06-22T09:55:37.974Z,68.8
2018-06-22T09:56:28.598Z,68.8
2018-06-22T09:57:18.395Z,68.8
2018-06-22T09:58:08.736Z,68.8
2018-06-22T09:58:58.260Z,68.9
2018-06-22T09:59:48.321Z,69.1
2018-06-22T10:00:38.388Z,69.2
2018-06-22T10:01:28.741Z,69.3
2018-06-22T10:02:19.506Z,69.3
2018-06-22T10:03:08.852Z,69.3
2018-06-22T10:03:58.955Z,69.3
2018-06-22T10:04:49.340Z,69.4
2018-06-22T10:05:38.536Z,69.5
2018-06-22T10:06:29.126Z,69.6
2018-06-22T10:07:19.461Z,69.8
2018-06-22T10:08:09.404Z,69.8
2018-06-22T10:08:59.567Z,69.7
2018-06-22T10:09:49.646Z,69.4
2018-06-22T10:10:39.683Z,69.4
2018-06-22T10:11:30.443Z,69.6
2018-06-22T10:12:19.527Z,69.8
2018-06-22T10:13:09.870Z,69.9
2018-06-22T10:13:59.935Z,70
2018-06-22T10:14:50.013Z,70.1
2018-06-22T10:15:40.079Z,70.1
2018-06-22T10:16:30.178Z,70.2
2018-06-22T10:17:20.254Z,70.3
2018-06-22T10:18:10.271Z,70.4
2018-06-22T10:19:00.096Z,70.6
2018-06-22T10:19:50.129Z,70.7
2018-06-22T10:20:40.506Z,70.8
2018-06-22T10:21:30.538Z,70.9
2018-06-22T10:22:20.377Z,70.9
2018-06-22T10:23:10.120Z,70.9
2018-06-22T10:24:00.210Z,70.9
2018-06-22T10:24:50.239Z,71
2018-06-22T10:25:40.867Z,71
2018-06-22T10:26:30.692Z,71.1
2018-06-22T10:27:21.163Z,71.1
2018-06-22T10:28:11.090Z,71.2
2018-06-22T10:29:00.592Z,71.2
2018-06-22T10:29:51.204Z,71.2
2018-06-22T10:30:40.711Z,71.2
2018-06-22T10:31:31.360Z,71.3
2018-06-22T10:32:21.394Z,71.3
2018-06-22T10:33:10.874Z,70.4
2018-06-22T10:34:01.762Z,68.9
2018-06-22T10:34:51.296Z,67.3
2018-06-22T10:35:41.372Z,66.1
2018-06-22T10:36:31.420Z,65.1
2018-06-22T10:37:21.810Z,64.5
2018-06-22T10:38:11.582Z,64.1
2018-06-22T10:39:01.332Z,64.3
2018-06-22T10:39:51.691Z,64.9
2018-06-22T10:40:42.066Z,65.3
2018-06-22T10:41:32.137Z,65.6
2018-06-22T10:42:21.896Z,66.3
2018-06-22T10:43:11.970Z,66.8
2018-06-22T10:44:02.318Z,67.2
2018-06-22T10:44:52.385Z,67.6
2018-06-22T10:45:42.418Z,67.9
2018-06-22T10:46:32.497Z,67.4
2018-06-22T10:47:22.583Z,66.1
2018-06-22T10:48:12.362Z,64.8
2018-06-22T10:49:02.715Z,63.8
2018-06-22T10:49:52.212Z,63.3
2018-06-22T10:50:42.602Z,63.4
2018-06-22T10:51:33.308Z,63.8
2018-06-22T10:52:22.105Z,63.9
2018-06-22T10:53:12.757Z,63.8
2018-06-22T10:54:02.524Z,63.2
2018-06-22T10:54:52.584Z,62.4
2018-06-22T10:55:42.659Z,61.4
2018-06-22T10:56:33.296Z,60.7
2018-06-22T10:57:23.079Z,60.1
2018-06-22T10:58:12.976Z,59.6
2018-06-22T10:59:03.459Z,59.3
2018-06-22T10:59:54.122Z,58.8
2018-06-22T11:00:43.619Z,58.1
2018-06-22T11:01:33.388Z,57.3
2018-06-22T11:02:23.743Z,56.6
2018-06-22T11:03:13.522Z,55.8
2018-06-22T11:04:03.861Z,55.1
2018-06-22T11:04:53.637Z,54.4
2018-06-22T11:05:44.303Z,53.8
2018-06-22T11:06:34.040Z,53.3
2018-06-22T11:07:23.827Z,53.1
2018-06-22T11:08:14.180Z,52.8
2018-06-22T11:09:04.268Z,52.6
2018-06-22T11:10:44.369Z,52.1
2018-06-22T11:11:34.451Z,51.9
2018-06-22T11:12:24.243Z,51.6
2018-06-22T11:13:13.752Z,51.3
2018-06-22T11:14:05.649Z,50.9
2018-06-22T11:14:54.718Z,50.6
2018-06-22T11:15:44.843Z,50.3
2018-06-22T11:16:34.894Z,49.9
2018-06-22T11:17:25.216Z,49.5
2018-06-22T11:18:15.182Z,49.2
2018-06-22T11:19:05.111Z,48.8
2018-06-22T11:19:54.819Z,48.4
2018-06-22T11:20:45.185Z,48.1
2018-06-22T11:21:34.982Z,47.6
2018-06-22T11:22:24.749Z,47.1
2018-06-22T11:23:14.526Z,46.8
2018-06-22T11:24:05.419Z,46.3
2018-06-22T11:24:55.387Z,45.9
2018-06-22T11:25:45.329Z,45.6
2018-06-22T11:26:35.370Z,45.3
2018-06-22T11:27:25.107Z,45
2018-06-22T11:28:15.775Z,44.6
2018-06-22T11:29:05.604Z,44.3
2018-06-22T11:29:55.933Z,44
2018-06-22T11:30:46.216Z,43.7
2018-06-22T11:31:35.451Z,43.5
2018-06-22T11:32:26.077Z,43.2
2018-06-22T11:33:15.873Z,42.9
2018-06-22T11:34:06.221Z,42.6
2018-06-22T11:34:55.996Z,42.3
2018-06-22T11:35:46.789Z,42
2018-06-22T11:36:36.388Z,41.8
2018-06-22T11:37:26.486Z,41.5
2018-06-22T11:38:16.507Z,41.3
2018-06-22T11:39:06.296Z,41
2018-06-22T11:39:56.654Z,40.8
2018-06-22T11:40:46.717Z,40.6
2018-06-22T11:41:36.791Z,40.4
2018-06-22T11:42:26.584Z,40.2
2018-06-22T11:43:16.618Z,39.9
2018-06-22T11:44:06.708Z,39.8
2018-06-22T11:44:56.775Z,39.5
2018-06-22T11:45:47.108Z,39.3
2018-06-22T11:46:37.168Z,39.1
2018-06-22T11:47:27.027Z,38.9
2018-06-22T11:48:17.304Z,38.8
2018-06-22T11:49:07.084Z,38.6
2018-06-22T11:49:57.449Z,38.4
2018-06-22T11:50:47.258Z,38.3
2018-06-22T11:51:37.020Z,38.1
2018-06-22T11:52:27.619Z,37.9
2018-06-22T11:53:17.130Z,37.8
2018-06-22T11:54:07.751Z,37.7
2018-06-22T11:54:57.789Z,37.6
2018-06-22T11:55:47.637Z,37.4
2018-06-22T11:56:37.668Z,37.3
2018-06-22T11:57:27.465Z,37.1
2018-06-22T11:58:18.068Z,37
2018-06-22T11:59:08.639Z,36.9
2018-06-22T11:59:58.192Z,36.8
2018-06-22T12:00:48.315Z,36.6
2018-06-22T12:01:38.530Z,36.6
2018-06-22T12:02:28.102Z,36.4
2018-06-22T12:03:18.460Z,36.3
2018-06-22T12:04:08.323Z,36.3
2018-06-22T12:04:58.588Z,36.1
2018-06-22T12:05:48.378Z,36
2018-06-22T12:06:38.745Z,35.9
2018-06-22T12:07:28.818Z,35.8
2018-06-22T12:08:18.843Z,35.6
2018-06-22T12:09:08.354Z,35.6
2018-06-22T12:09:58.704Z,35.5
2018-06-22T12:10:49.041Z,35.4
2018-06-22T12:11:38.865Z,35.3
2018-06-22T12:12:29.172Z,35.2
2018-06-22T12:13:18.996Z,35.1
2018-06-22T12:14:09.343Z,35
2018-06-22T12:14:58.888Z,34.9
2018-06-22T12:15:48.850Z,34.8
2018-06-22T12:16:39.492Z,34.8
2018-06-22T12:17:29.557Z,34.6
2018-06-22T12:18:19.604Z,34.6
2018-06-22T12:19:09.925Z,34.4
2018-06-22T12:19:59.479Z,34.3
2018-06-22T12:20:49.845Z,34.3
2018-06-22T12:21:39.321Z,34.2
2018-06-22T12:22:29.694Z,34.1
2018-06-22T12:23:19.447Z,33.9
2018-06-22T12:24:10.081Z,33.9
2018-06-22T12:25:00.119Z,33.8
2018-06-22T12:25:49.930Z,33.7
2018-06-22T12:26:39.967Z,33.6
2018-06-22T12:27:30.103Z,33.6
2018-06-22T12:28:20.396Z,33.4
2018-06-22T12:29:09.607Z,33.4
2018-06-22T12:30:00.594Z,33.3
2018-06-22T12:30:50.666Z,33.3
2018-06-22T12:31:40.395Z,33.1
2018-06-22T12:32:30.435Z,33.1
2018-06-22T12:33:20.256Z,33
2018-06-22T12:34:10.648Z,32.9
2018-06-22T12:35:00.361Z,32.9
2018-06-22T12:35:50.434Z,32.8
2018-06-22T12:36:40.755Z,32.8
2018-06-22T12:37:31.111Z,32.8
2018-06-22T12:38:21.207Z,32.6
2018-06-22T12:39:10.946Z,32.6
2018-06-22T12:40:01.310Z,32.5
2018-06-22T12:40:51.412Z,32.4
2018-06-22T12:41:41.142Z,32.3
2018-06-22T12:42:31.492Z,32.2
2018-06-22T12:43:21.349Z,32.1
2018-06-22T12:44:11.621Z,32.1
2018-06-22T12:45:02.222Z,31.9
2018-06-22T12:45:51.479Z,31.9
2018-06-22T12:46:41.895Z,31.8
2018-06-22T12:47:31.872Z,31.8
2018-06-22T12:48:21.407Z,31.7
2018-06-22T12:49:12.013Z,31.7
2018-06-22T12:50:01.825Z,31.6
2018-06-22T12:50:51.601Z,31.6
2018-06-22T12:51:41.650Z,31.6
2018-06-22T12:52:31.727Z,31.5
2018-06-22T12:53:22.095Z,31.5
2018-06-22T12:54:11.865Z,31.4
2018-06-22T12:55:02.537Z,31.4
2018-06-22T12:55:51.997Z,31.3
2018-06-22T12:56:41.870Z,31.3
2018-06-22T12:57:32.691Z,31.3
2018-06-22T12:58:22.723Z,31.3
2018-06-22T12:59:12.826Z,31.2
2018-06-22T13:00:02.615Z,31.1
2018-06-22T13:00:52.941Z,31.1
2018-06-22T13:01:43.020Z,31.1
2018-06-22T13:02:32.810Z,31
2018-06-22T13:03:22.572Z,30.9
2018-06-22T13:04:12.634Z,30.9
2018-06-22T13:05:03.284Z,30.8
2018-06-22T13:05:52.562Z,30.8
2018-06-22T13:06:43.374Z,30.7
2018-06-22T13:07:33.474Z,30.6
2018-06-22T13:08:23.237Z,30.6
2018-06-22T13:09:13.508Z,30.6
2018-06-22T13:10:03.338Z,30.5
2018-06-22T13:10:53.562Z,30.4
2018-06-22T13:11:43.768Z,30.4
2018-06-22T13:12:33.685Z,30.4
2018-06-22T13:13:23.632Z,30.3
2018-06-22T13:14:13.671Z,30.3
2018-06-22T13:15:04.013Z,30.3
2018-06-22T13:15:54.063Z,30.2
2018-06-22T13:16:43.558Z,30.1
2018-06-22T13:17:33.917Z,30.1
2018-06-22T13:18:24.250Z,30.1
2018-06-22T13:19:14.340Z,30.1
2018-06-22T13:20:04.398Z,30
2018-06-22T13:20:54.159Z,29.9
2018-06-22T13:21:44.538Z,29.9
2018-06-22T13:22:33.752Z,29.8
2018-06-22T13:23:24.371Z,29.8
2018-06-22T13:24:14.752Z,29.8
2018-06-22T13:25:04.500Z,29.8
2018-06-22T13:25:54.825Z,29.7
2018-06-22T13:26:45.002Z,29.6
2018-06-22T13:27:34.952Z,29.6
2018-06-22T13:28:24.464Z,29.6
2018-06-22T13:29:15.076Z,29.5
2018-06-22T13:30:05.152Z,29.4
2018-06-22T13:30:55.387Z,29.4
2018-06-22T13:31:45.292Z,29.4
2018-06-22T13:32:34.525Z,29.4
2018-06-22T13:33:25.165Z,29.4
2018-06-22T13:34:15.471Z,29.4
2018-06-22T13:35:05.539Z,29.4
2018-06-22T13:35:55.596Z,29.4
2018-06-22T13:36:45.669Z,29.3
2018-06-22T13:37:35.739Z,29.3
2018-06-22T13:38:25.532Z,29.3
2018-06-22T13:39:15.336Z,29.3
2018-06-22T13:40:05.927Z,29.3
2018-06-22T13:40:55.730Z,29.2
2018-06-22T13:41:45.518Z,29.2
2018-06-22T13:42:36.131Z,29.2
2018-06-22T13:43:25.888Z,29.1
2018-06-22T13:44:16.256Z,29.1
2018-06-22T13:45:06.338Z,29.1
2018-06-22T13:45:56.376Z,29.1
2018-06-22T13:46:45.644Z,29.1
2018-06-22T13:47:36.240Z,29.1
2018-06-22T13:48:26.572Z,29
2018-06-22T13:49:16.655Z,29
2018-06-22T13:50:06.795Z,29
2018-06-22T13:50:56.220Z,29
2018-06-22T13:51:46.852Z,28.9
2018-06-22T13:52:36.936Z,28.9
2018-06-22T13:53:27.003Z,28.9
2018-06-22T13:54:16.780Z,28.9
2018-06-22T13:55:06.567Z,28.9
2018-06-22T13:55:56.894Z,28.8
2018-06-22T13:56:47.759Z,28.8
2018-06-22T13:57:37.311Z,28.8
2018-06-22T13:58:27.366Z,28.8
2018-06-22T13:59:17.146Z,28.7
2018-06-22T14:00:07.499Z,28.7
2018-06-22T14:00:57.036Z,28.6
2018-06-22T14:01:47.648Z,28.6
2018-06-22T14:02:37.408Z,28.6
2018-06-22T14:03:27.735Z,28.6
2018-06-22T14:04:17.861Z,28.6
2018-06-22T14:05:07.609Z,28.6
2018-06-22T14:05:57.687Z,28.6
2018-06-22T14:06:47.461Z,28.5
2018-06-22T14:07:37.536Z,28.5
2018-06-22T14:08:27.835Z,28.5
2018-06-22T14:09:18.495Z,28.4
2018-06-22T14:10:07.995Z,28.4
2018-06-22T14:10:58.068Z,28.4
2018-06-22T14:11:48.159Z,28.4
2018-06-22T14:12:37.965Z,28.3
2018-06-22T14:13:28.500Z,28.3
2018-06-22T14:14:18.591Z,28.3
2018-06-22T14:15:08.084Z,28.3
2018-06-22T14:15:58.703Z,28.3
2018-06-22T14:16:48.795Z,28.2
2018-06-22T14:17:38.839Z,28.2
2018-06-22T14:18:28.921Z,28.2
2018-06-22T14:19:18.966Z,28.1
2018-06-22T14:20:09.432Z,28.2
2018-06-22T14:20:58.822Z,28.1
2018-06-22T14:21:48.641Z,28.1
2018-06-22T14:22:38.671Z,28.1
2018-06-22T14:23:28.726Z,28.1
2018-06-22T14:24:18.826Z,28
2018-06-22T14:25:09.415Z,28
2018-06-22T14:25:59.472Z,27.9
2018-06-22T14:26:49.555Z,27.9
2018-06-22T14:27:39.327Z,28
2018-06-22T14:28:29.412Z,28
2018-06-22T14:29:19.791Z,27.9
2018-06-22T14:30:09.815Z,27.9
2018-06-22T14:31:00.318Z,27.9
2018-06-22T14:31:49.956Z,27.9
2018-06-22T14:32:39.706Z,27.9
2018-06-22T14:33:29.798Z,27.9
2018-06-22T14:34:19.843Z,27.9
2018-06-22T14:35:09.934Z,27.9
2018-06-22T14:35:59.977Z,27.9
2018-06-22T14:36:50.337Z,27.9
2018-06-22T14:37:39.823Z,27.9
2018-06-22T14:38:29.940Z,27.9
2018-06-22T14:46:50.630Z,27.8
2018-06-22T14:48:30.744Z,27.8
2018-06-22T14:49:20.750Z,27.8
2018-06-22T14:50:10.976Z,27.8
2018-06-22T14:51:00.620Z,27.8
2018-06-22T14:51:51.504Z,27.8
2018-06-22T14:52:41.547Z,27.8
2018-06-22T14:53:30.507Z,27.8
2018-06-22T14:54:21.389Z,27.7
2018-06-22T14:55:10.901Z,27.7
2018-06-22T14:56:01.526Z,27.7
2018-06-22T14:56:51.866Z,27.7
2018-06-22T14:57:42.129Z,27.7